sensor_id;sensor_type;location;lat;lon;timestamp;P1;durP1;ratioP1;P2;durP2;ratioP2
13793;SDS011;31160;49.500;7.772;2022-12-15T00:01:39;20.23;;;11.57;;
13793;SDS011;31160;49.500;7.772;2022-12-15T00:04:24;20.73;;;11.90;;
13793;SDS011;31160;49.500;7.772;2022-12-15T00:07:09;19.30;;;11.97;;
13793;SDS011;31160;49.500;7.772;2022-12-15T00:09:54;21.83;;;12.83;;
13793;SDS011;31160;49.500;7.772;2022-12-15T00:12:40;26.97;;;12.70;;
13793;SDS011;31160;49.500;7.772;2022-12-15T00:15:25;17.30;;;10.97;;
13793;SDS011;31160;49.500;7.772;2022-12-15T00:18:10;19.63;;;11.93;;
13793;SDS011;31160;49.500;7.772;2022-12-15T00:20:56;21.33;;;12.43;;
13793;SDS011;31160;49.500;7.772;2022-12-15T00:23:42;17.50;;;11.17;;
13793;SDS011;31160;49.500;7.772;2022-12-15T00:26:27;21.97;;;12.30;;
13793;SDS011;31160;49.500;7.772;2022-12-15T00:29:13;22.20;;;12.60;;
13793;SDS011;31160;49.500;7.772;2022-12-15T00:31:58;20.37;;;12.63;;
13793;SDS011;31160;49.500;7.772;2022-12-15T00:34:43;17.00;;;11.27;;
13793;SDS011;31160;49.500;7.772;2022-12-15T00:37:29;27.17;;;12.80;;
13793;SDS011;31160;49.500;7.772;2022-12-15T00:40:14;22.30;;;12.00;;
13793;SDS011;31160;49.500;7.772;2022-12-15T00:42:41;20.20;;;12.07;;
13793;SDS011;31160;49.500;7.772;2022-12-15T00:45:08;18.43;;;11.43;;
13793;SDS011;31160;49.500;7.772;2022-12-15T00:47:35;18.20;;;11.87;;
13793;SDS011;31160;49.500;7.772;2022-12-15T00:50:02;20.60;;;11.37;;
13793;SDS011;31160;49.500;7.772;2022-12-15T00:52:48;20.73;;;11.40;;
13793;SDS011;31160;49.500;7.772;2022-12-15T00:55:33;17.97;;;11.53;;
13793;SDS011;31160;49.500;7.772;2022-12-15T00:58:19;18.03;;;10.77;;
13793;SDS011;31160;49.500;7.772;2022-12-15T01:01:06;20.23;;;11.37;;
13793;SDS011;31160;49.500;7.772;2022-12-15T01:03:53;18.90;;;11.80;;
13793;SDS011;31160;49.500;7.772;2022-12-15T01:06:39;18.67;;;11.37;;
13793;SDS011;31160;49.500;7.772;2022-12-15T01:09:24;17.67;;;11.73;;
13793;SDS011;31160;49.500;7.772;2022-12-15T01:12:09;19.17;;;11.20;;
13793;SDS011;31160;49.500;7.772;2022-12-15T01:14:55;18.33;;;12.13;;
13793;SDS011;31160;49.500;7.772;2022-12-15T01:17:40;18.90;;;11.50;;
13793;SDS011;31160;49.500;7.772;2022-12-15T01:20:26;19.80;;;11.77;;
13793;SDS011;31160;49.500;7.772;2022-12-15T01:22:53;21.40;;;12.00;;
13793;SDS011;31160;49.500;7.772;2022-12-15T01:25:21;18.43;;;11.53;;
13793;SDS011;31160;49.500;7.772;2022-12-15T01:27:49;20.87;;;12.00;;
13793;SDS011;31160;49.500;7.772;2022-12-15T01:30:17;21.50;;;12.60;;
13793;SDS011;31160;49.500;7.772;2022-12-15T01:32:47;20.17;;;12.33;;
13793;SDS011;31160;49.500;7.772;2022-12-15T01:35:14;21.67;;;12.37;;
13793;SDS011;31160;49.500;7.772;2022-12-15T01:37:42;19.30;;;11.43;;
13793;SDS011;31160;49.500;7.772;2022-12-15T01:40:11;20.37;;;11.90;;
13793;SDS011;31160;49.500;7.772;2022-12-15T01:43:20;19.57;;;11.27;;
13793;SDS011;31160;49.500;7.772;2022-12-15T01:48:24;23.83;;;11.53;;
13793;SDS011;31160;49.500;7.772;2022-12-15T01:51:05;18.43;;;10.80;;
13793;SDS011;31160;49.500;7.772;2022-12-15T01:56:33;19.00;;;11.57;;
13793;SDS011;31160;49.500;7.772;2022-12-15T01:59:27;20.73;;;11.87;;
13793;SDS011;31160;49.500;7.772;2022-12-15T02:01:56;18.00;;;10.43;;
13793;SDS011;31160;49.500;7.772;2022-12-15T02:04:23;19.03;;;11.20;;
13793;SDS011;31160;49.500;7.772;2022-12-15T02:06:50;17.47;;;11.53;;
13793;SDS011;31160;49.500;7.772;2022-12-15T02:09:18;18.00;;;11.73;;
13793;SDS011;31160;49.500;7.772;2022-12-15T02:15:05;21.57;;;12.93;;
13793;SDS011;31160;49.500;7.772;2022-12-15T02:31:27;22.63;;;10.97;;
13793;SDS011;31160;49.500;7.772;2022-12-15T02:37:16;20.80;;;11.70;;
13793;SDS011;31160;49.500;7.772;2022-12-15T02:39:57;16.07;;;10.63;;
13793;SDS011;31160;49.500;7.772;2022-12-15T02:42:25;20.17;;;11.57;;
13793;SDS011;31160;49.500;7.772;2022-12-15T02:53:37;20.93;;;11.77;;
13793;SDS011;31160;49.500;7.772;2022-12-15T02:59:07;19.13;;;10.70;;
13793;SDS011;31160;49.500;7.772;2022-12-15T03:01:51;25.00;;;11.97;;
13793;SDS011;31160;49.500;7.772;2022-12-15T03:04:24;18.48;;;10.82;;
13793;SDS011;31160;49.500;7.772;2022-12-15T03:06:56;19.27;;;11.43;;
13793;SDS011;31160;49.500;7.772;2022-12-15T03:09:26;17.57;;;10.37;;
13793;SDS011;31160;49.500;7.772;2022-12-15T03:11:53;20.27;;;10.83;;
13793;SDS011;31160;49.500;7.772;2022-12-15T03:14:20;18.13;;;11.43;;
13793;SDS011;31160;49.500;7.772;2022-12-15T03:16:47;17.08;;;10.60;;
13793;SDS011;31160;49.500;7.772;2022-12-15T03:19:14;18.50;;;11.03;;
13793;SDS011;31160;49.500;7.772;2022-12-15T03:21:40;17.33;;;10.93;;
13793;SDS011;31160;49.500;7.772;2022-12-15T03:24:07;22.43;;;11.60;;
13793;SDS011;31160;49.500;7.772;2022-12-15T03:26:34;17.57;;;10.33;;
13793;SDS011;31160;49.500;7.772;2022-12-15T03:29:01;16.50;;;10.33;;
13793;SDS011;31160;49.500;7.772;2022-12-15T03:31:28;17.07;;;10.17;;
13793;SDS011;31160;49.500;7.772;2022-12-15T03:33:55;19.37;;;10.80;;
13793;SDS011;31160;49.500;7.772;2022-12-15T03:36:22;17.93;;;10.37;;
13793;SDS011;31160;49.500;7.772;2022-12-15T03:38:49;19.35;;;10.82;;
13793;SDS011;31160;49.500;7.772;2022-12-15T03:41:15;21.38;;;11.48;;
13793;SDS011;31160;49.500;7.772;2022-12-15T03:43:45;23.63;;;11.80;;
13793;SDS011;31160;49.500;7.772;2022-12-15T03:46:15;20.97;;;11.53;;
13793;SDS011;31160;49.500;7.772;2022-12-15T03:48:41;22.65;;;11.55;;
13793;SDS011;31160;49.500;7.772;2022-12-15T03:51:08;21.75;;;11.70;;
13793;SDS011;31160;49.500;7.772;2022-12-15T03:53:35;18.25;;;11.05;;
13793;SDS011;31160;49.500;7.772;2022-12-15T03:56:02;18.02;;;10.98;;
13793;SDS011;31160;49.500;7.772;2022-12-15T03:58:29;21.75;;;11.30;;
13793;SDS011;31160;49.500;7.772;2022-12-15T04:00:55;20.45;;;11.02;;
13793;SDS011;31160;49.500;7.772;2022-12-15T04:03:22;20.52;;;11.57;;
13793;SDS011;31160;49.500;7.772;2022-12-15T04:05:49;18.35;;;11.02;;
13793;SDS011;31160;49.500;7.772;2022-12-15T04:08:16;18.67;;;11.18;;
13793;SDS011;31160;49.500;7.772;2022-12-15T04:10:43;20.50;;;11.52;;
13793;SDS011;31160;49.500;7.772;2022-12-15T04:13:10;17.93;;;10.87;;
13793;SDS011;31160;49.500;7.772;2022-12-15T04:15:37;21.50;;;11.27;;
13793;SDS011;31160;49.500;7.772;2022-12-15T04:18:06;18.75;;;9.98;;
13793;SDS011;31160;49.500;7.772;2022-12-15T04:20:37;21.05;;;11.43;;
13793;SDS011;31160;49.500;7.772;2022-12-15T04:23:05;20.05;;;11.38;;
13793;SDS011;31160;49.500;7.772;2022-12-15T04:25:33;18.35;;;11.07;;
13793;SDS011;31160;49.500;7.772;2022-12-15T04:28:18;21.38;;;11.43;;
13793;SDS011;31160;49.500;7.772;2022-12-15T04:31:14;19.83;;;10.52;;
13793;SDS011;31160;49.500;7.772;2022-12-15T04:34:07;22.77;;;11.90;;
13793;SDS011;31160;49.500;7.772;2022-12-15T04:37:03;21.17;;;10.80;;
13793;SDS011;31160;49.500;7.772;2022-12-15T04:39:54;23.55;;;12.30;;
13793;SDS011;31160;49.500;7.772;2022-12-15T04:42:40;22.05;;;12.07;;
13793;SDS011;31160;49.500;7.772;2022-12-15T04:45:28;19.02;;;10.43;;
13793;SDS011;31160;49.500;7.772;2022-12-15T04:48:14;23.58;;;12.63;;
13793;SDS011;31160;49.500;7.772;2022-12-15T04:50:59;22.55;;;11.60;;
13793;SDS011;31160;49.500;7.772;2022-12-15T04:53:45;27.83;;;12.80;;
13793;SDS011;31160;49.500;7.772;2022-12-15T04:56:31;28.42;;;13.23;;
13793;SDS011;31160;49.500;7.772;2022-12-15T04:59:16;24.17;;;11.98;;
13793;SDS011;31160;49.500;7.772;2022-12-15T05:02:01;19.20;;;11.65;;
13793;SDS011;31160;49.500;7.772;2022-12-15T05:04:47;17.05;;;10.35;;
13793;SDS011;31160;49.500;7.772;2022-12-15T05:07:32;19.13;;;10.15;;
13793;SDS011;31160;49.500;7.772;2022-12-15T05:10:18;18.48;;;10.27;;
13793;SDS011;31160;49.500;7.772;2022-12-15T05:13:06;19.77;;;10.57;;
13793;SDS011;31160;49.500;7.772;2022-12-15T05:15:52;17.77;;;9.57;;
13793;SDS011;31160;49.500;7.772;2022-12-15T05:18:38;20.90;;;10.75;;
13793;SDS011;31160;49.500;7.772;2022-12-15T05:21:23;18.75;;;10.20;;
13793;SDS011;31160;49.500;7.772;2022-12-15T05:24:09;20.95;;;10.98;;
13793;SDS011;31160;49.500;7.772;2022-12-15T05:26:54;19.42;;;10.00;;
13793;SDS011;31160;49.500;7.772;2022-12-15T05:29:39;17.80;;;10.02;;
13793;SDS011;31160;49.500;7.772;2022-12-15T05:32:25;21.40;;;10.60;;
13793;SDS011;31160;49.500;7.772;2022-12-15T05:34:52;24.83;;;11.75;;
13793;SDS011;31160;49.500;7.772;2022-12-15T05:37:18;19.50;;;11.27;;
13793;SDS011;31160;49.500;7.772;2022-12-15T05:39:45;19.20;;;11.10;;
13793;SDS011;31160;49.500;7.772;2022-12-15T05:42:12;21.48;;;11.60;;
13793;SDS011;31160;49.500;7.772;2022-12-15T05:44:38;18.52;;;10.52;;
13793;SDS011;31160;49.500;7.772;2022-12-15T05:47:05;21.50;;;11.98;;
13793;SDS011;31160;49.500;7.772;2022-12-15T05:49:34;24.92;;;11.38;;
13793;SDS011;31160;49.500;7.772;2022-12-15T05:52:01;24.25;;;14.23;;
13793;SDS011;31160;49.500;7.772;2022-12-15T05:54:28;22.15;;;12.93;;
13793;SDS011;31160;49.500;7.772;2022-12-15T05:56:54;27.23;;;14.07;;
13793;SDS011;31160;49.500;7.772;2022-12-15T05:59:21;30.15;;;14.27;;
13793;SDS011;31160;49.500;7.772;2022-12-15T06:01:48;33.38;;;15.77;;
13793;SDS011;31160;49.500;7.772;2022-12-15T06:04:15;26.00;;;13.70;;
13793;SDS011;31160;49.500;7.772;2022-12-15T06:06:41;27.60;;;13.98;;
13793;SDS011;31160;49.500;7.772;2022-12-15T06:09:08;25.23;;;13.68;;
13793;SDS011;31160;49.500;7.772;2022-12-15T06:11:35;25.88;;;13.45;;
13793;SDS011;31160;49.500;7.772;2022-12-15T06:14:02;24.33;;;12.48;;
13793;SDS011;31160;49.500;7.772;2022-12-15T06:16:29;20.83;;;11.40;;
13793;SDS011;31160;49.500;7.772;2022-12-15T06:18:58;17.70;;;10.48;;
13793;SDS011;31160;49.500;7.772;2022-12-15T06:21:30;21.30;;;11.38;;
13793;SDS011;31160;49.500;7.772;2022-12-15T06:24:00;20.02;;;11.10;;
13793;SDS011;31160;49.500;7.772;2022-12-15T06:26:30;23.77;;;12.10;;
13793;SDS011;31160;49.500;7.772;2022-12-15T06:29:05;22.75;;;12.43;;
13793;SDS011;31160;49.500;7.772;2022-12-15T06:31:34;21.25;;;11.93;;
13793;SDS011;31160;49.500;7.772;2022-12-15T06:34:05;20.73;;;10.98;;
13793;SDS011;31160;49.500;7.772;2022-12-15T06:36:33;17.40;;;11.05;;
13793;SDS011;31160;49.500;7.772;2022-12-15T06:39:01;19.60;;;11.23;;
13793;SDS011;31160;49.500;7.772;2022-12-15T06:41:30;45.20;;;17.80;;
13793;SDS011;31160;49.500;7.772;2022-12-15T06:43:57;60.10;;;24.83;;
13793;SDS011;31160;49.500;7.772;2022-12-15T06:46:25;47.35;;;21.65;;
13793;SDS011;31160;49.500;7.772;2022-12-15T06:48:54;31.83;;;16.83;;
13793;SDS011;31160;49.500;7.772;2022-12-15T06:51:21;27.17;;;15.13;;
13793;SDS011;31160;49.500;7.772;2022-12-15T06:53:47;33.30;;;17.00;;
13793;SDS011;31160;49.500;7.772;2022-12-15T06:56:21;55.47;;;25.13;;
13793;SDS011;31160;49.500;7.772;2022-12-15T06:59:00;37.55;;;19.35;;
13793;SDS011;31160;49.500;7.772;2022-12-15T07:01:28;29.35;;;14.07;;
13793;SDS011;31160;49.500;7.772;2022-12-15T07:03:56;26.25;;;14.63;;
13793;SDS011;31160;49.500;7.772;2022-12-15T07:06:25;32.28;;;15.60;;
13793;SDS011;31160;49.500;7.772;2022-12-15T07:08:53;24.67;;;12.85;;
13793;SDS011;31160;49.500;7.772;2022-12-15T07:11:22;22.15;;;11.95;;
13793;SDS011;31160;49.500;7.772;2022-12-15T07:13:49;31.38;;;16.77;;
13793;SDS011;31160;49.500;7.772;2022-12-15T07:16:18;29.70;;;17.38;;
13793;SDS011;31160;49.500;7.772;2022-12-15T07:18:47;28.35;;;15.50;;
13793;SDS011;31160;49.500;7.772;2022-12-15T07:21:14;25.30;;;14.00;;
13793;SDS011;31160;49.500;7.772;2022-12-15T07:23:40;25.45;;;12.88;;
13793;SDS011;31160;49.500;7.772;2022-12-15T07:26:24;43.85;;;20.63;;
13793;SDS011;31160;49.500;7.772;2022-12-15T07:28:51;30.35;;;16.20;;
13793;SDS011;31160;49.500;7.772;2022-12-15T07:31:19;31.55;;;15.90;;
13793;SDS011;31160;49.500;7.772;2022-12-15T07:33:46;30.00;;;14.93;;
13793;SDS011;31160;49.500;7.772;2022-12-15T07:36:13;34.88;;;16.83;;
13793;SDS011;31160;49.500;7.772;2022-12-15T07:38:40;27.48;;;15.43;;
13793;SDS011;31160;49.500;7.772;2022-12-15T07:41:07;26.23;;;14.43;;
13793;SDS011;31160;49.500;7.772;2022-12-15T07:43:34;27.58;;;14.07;;
13793;SDS011;31160;49.500;7.772;2022-12-15T07:46:03;32.25;;;16.00;;
13793;SDS011;31160;49.500;7.772;2022-12-15T07:48:30;26.33;;;14.75;;
13793;SDS011;31160;49.500;7.772;2022-12-15T07:50:58;32.35;;;17.63;;
13793;SDS011;31160;49.500;7.772;2022-12-15T07:53:37;24.63;;;13.98;;
13793;SDS011;31160;49.500;7.772;2022-12-15T07:56:05;22.88;;;12.00;;
13793;SDS011;31160;49.500;7.772;2022-12-15T07:58:35;21.25;;;12.55;;
13793;SDS011;31160;49.500;7.772;2022-12-15T08:01:03;30.17;;;11.98;;
13793;SDS011;31160;49.500;7.772;2022-12-15T08:03:32;20.92;;;12.90;;
13793;SDS011;31160;49.500;7.772;2022-12-15T08:06:08;26.02;;;14.68;;
13793;SDS011;31160;49.500;7.772;2022-12-15T08:08:37;26.13;;;13.50;;
13793;SDS011;31160;49.500;7.772;2022-12-15T08:11:04;28.80;;;14.82;;
13793;SDS011;31160;49.500;7.772;2022-12-15T08:13:33;26.95;;;15.27;;
13793;SDS011;31160;49.500;7.772;2022-12-15T08:16:20;28.10;;;15.07;;
13793;SDS011;31160;49.500;7.772;2022-12-15T08:18:47;28.48;;;15.10;;
13793;SDS011;31160;49.500;7.772;2022-12-15T08:21:14;30.77;;;15.75;;
13793;SDS011;31160;49.500;7.772;2022-12-15T08:23:41;30.60;;;16.33;;
13793;SDS011;31160;49.500;7.772;2022-12-15T08:26:11;32.10;;;16.48;;
13793;SDS011;31160;49.500;7.772;2022-12-15T08:28:40;27.50;;;16.25;;
13793;SDS011;31160;49.500;7.772;2022-12-15T08:31:09;28.85;;;15.90;;
13793;SDS011;31160;49.500;7.772;2022-12-15T08:33:38;28.80;;;15.10;;
13793;SDS011;31160;49.500;7.772;2022-12-15T08:36:06;29.90;;;15.88;;
13793;SDS011;31160;49.500;7.772;2022-12-15T08:38:35;30.55;;;16.90;;
13793;SDS011;31160;49.500;7.772;2022-12-15T08:41:14;27.58;;;15.48;;
13793;SDS011;31160;49.500;7.772;2022-12-15T08:43:45;29.53;;;15.27;;
13793;SDS011;31160;49.500;7.772;2022-12-15T08:46:15;27.47;;;14.47;;
13793;SDS011;31160;49.500;7.772;2022-12-15T08:48:43;28.47;;;14.83;;
13793;SDS011;31160;49.500;7.772;2022-12-15T08:51:10;24.83;;;13.87;;
13793;SDS011;31160;49.500;7.772;2022-12-15T08:53:37;25.90;;;15.00;;
13793;SDS011;31160;49.500;7.772;2022-12-15T08:56:08;34.37;;;17.73;;
13793;SDS011;31160;49.500;7.772;2022-12-15T08:58:37;23.60;;;13.43;;
13793;SDS011;31160;49.500;7.772;2022-12-15T09:01:05;29.23;;;14.70;;
13793;SDS011;31160;49.500;7.772;2022-12-15T09:03:34;23.07;;;13.97;;
13793;SDS011;31160;49.500;7.772;2022-12-15T09:06:06;23.80;;;12.50;;
13793;SDS011;31160;49.500;7.772;2022-12-15T09:08:37;27.40;;;16.60;;
13793;SDS011;31160;49.500;7.772;2022-12-15T09:11:04;31.80;;;14.87;;
13793;SDS011;31160;49.500;7.772;2022-12-15T09:13:31;26.03;;;14.53;;
13793;SDS011;31160;49.500;7.772;2022-12-15T09:16:02;27.27;;;16.90;;
13793;SDS011;31160;49.500;7.772;2022-12-15T09:18:36;23.67;;;13.33;;
13793;SDS011;31160;49.500;7.772;2022-12-15T09:21:04;23.00;;;12.97;;
13793;SDS011;31160;49.500;7.772;2022-12-15T09:23:33;25.07;;;14.23;;
13793;SDS011;31160;49.500;7.772;2022-12-15T09:26:12;25.40;;;13.43;;
13793;SDS011;31160;49.500;7.772;2022-12-15T09:28:40;23.73;;;12.63;;
13793;SDS011;31160;49.500;7.772;2022-12-15T09:31:15;24.63;;;14.00;;
13793;SDS011;31160;49.500;7.772;2022-12-15T09:33:55;30.60;;;14.60;;
13793;SDS011;31160;49.500;7.772;2022-12-15T09:36:23;22.70;;;12.70;;
13793;SDS011;31160;49.500;7.772;2022-12-15T09:38:51;24.57;;;13.80;;
13793;SDS011;31160;49.500;7.772;2022-12-15T09:41:26;24.07;;;13.60;;
13793;SDS011;31160;49.500;7.772;2022-12-15T09:43:59;24.03;;;14.07;;
13793;SDS011;31160;49.500;7.772;2022-12-15T09:52:11;25.47;;;12.60;;
13793;SDS011;31160;49.500;7.772;2022-12-15T09:54:39;24.10;;;13.50;;
13793;SDS011;31160;49.500;7.772;2022-12-15T09:59:53;25.07;;;14.53;;
13793;SDS011;31160;49.500;7.772;2022-12-15T10:14:04;25.93;;;14.63;;
13793;SDS011;31160;49.500;7.772;2022-12-15T10:19:41;25.97;;;14.43;;
13793;SDS011;31160;49.500;7.772;2022-12-15T10:22:25;25.47;;;13.80;;
13793;SDS011;31160;49.500;7.772;2022-12-15T10:24:58;27.93;;;14.73;;
13793;SDS011;31160;49.500;7.772;2022-12-15T10:27:49;22.60;;;14.23;;
13793;SDS011;31160;49.500;7.772;2022-12-15T10:30:30;25.53;;;15.20;;
13793;SDS011;31160;49.500;7.772;2022-12-15T10:35:32;26.63;;;14.87;;
13793;SDS011;31160;49.500;7.772;2022-12-15T10:38:05;28.27;;;15.20;;
13793;SDS011;31160;49.500;7.772;2022-12-15T10:40:44;25.13;;;14.60;;
13793;SDS011;31160;49.500;7.772;2022-12-15T10:43:28;24.77;;;13.40;;
13793;SDS011;31160;49.500;7.772;2022-12-15T10:46:22;27.80;;;15.37;;
13793;SDS011;31160;49.500;7.772;2022-12-15T10:48:57;24.13;;;14.20;;
13793;SDS011;31160;49.500;7.772;2022-12-15T10:51:50;29.10;;;15.67;;
13793;SDS011;31160;49.500;7.772;2022-12-15T10:54:22;27.03;;;14.37;;
13793;SDS011;31160;49.500;7.772;2022-12-15T10:56:53;29.57;;;15.63;;
13793;SDS011;31160;49.500;7.772;2022-12-15T11:01:48;27.27;;;15.77;;
13793;SDS011;31160;49.500;7.772;2022-12-15T11:04:31;26.90;;;15.00;;
13793;SDS011;31160;49.500;7.772;2022-12-15T11:07:00;26.13;;;14.30;;
13793;SDS011;31160;49.500;7.772;2022-12-15T11:09:32;26.13;;;16.30;;
13793;SDS011;31160;49.500;7.772;2022-12-15T11:12:22;26.97;;;15.37;;
13793;SDS011;31160;49.500;7.772;2022-12-15T11:21:01;28.40;;;15.00;;
13793;SDS011;31160;49.500;7.772;2022-12-15T11:26:26;27.90;;;15.77;;
13793;SDS011;31160;49.500;7.772;2022-12-15T11:29:00;27.80;;;16.30;;
13793;SDS011;31160;49.500;7.772;2022-12-15T11:31:43;25.90;;;15.00;;
13793;SDS011;31160;49.500;7.772;2022-12-15T11:34:14;27.70;;;14.97;;
13793;SDS011;31160;49.500;7.772;2022-12-15T11:42:31;27.37;;;14.10;;
13793;SDS011;31160;49.500;7.772;2022-12-15T11:48:19;29.63;;;15.67;;
13793;SDS011;31160;49.500;7.772;2022-12-15T11:53:55;25.90;;;15.30;;
13793;SDS011;31160;49.500;7.772;2022-12-15T11:56:33;31.17;;;16.20;;
13793;SDS011;31160;49.500;7.772;2022-12-15T12:04:29;32.10;;;17.13;;
13793;SDS011;31160;49.500;7.772;2022-12-15T12:08:19;31.77;;;17.87;;
13793;SDS011;31160;49.500;7.772;2022-12-15T12:10:55;29.83;;;16.47;;
13793;SDS011;31160;49.500;7.772;2022-12-15T12:21:40;36.97;;;18.33;;
13793;SDS011;31160;49.500;7.772;2022-12-15T12:24:22;39.70;;;19.87;;
13793;SDS011;31160;49.500;7.772;2022-12-15T12:27:07;39.77;;;21.77;;
13793;SDS011;31160;49.500;7.772;2022-12-15T12:30:07;36.83;;;19.50;;
13793;SDS011;31160;49.500;7.772;2022-12-15T12:32:40;35.60;;;19.33;;
13793;SDS011;31160;49.500;7.772;2022-12-15T12:38:16;36.90;;;18.70;;
13793;SDS011;31160;49.500;7.772;2022-12-15T12:43:41;38.07;;;19.60;;
13793;SDS011;31160;49.500;7.772;2022-12-15T12:46:20;35.30;;;18.53;;
13793;SDS011;31160;49.500;7.772;2022-12-15T12:51:59;33.60;;;16.63;;
13793;SDS011;31160;49.500;7.772;2022-12-15T12:59:39;31.90;;;17.97;;
13793;SDS011;31160;49.500;7.772;2022-12-15T13:07:30;33.00;;;18.87;;
13793;SDS011;31160;49.500;7.772;2022-12-15T13:10:15;38.03;;;20.47;;
13793;SDS011;31160;49.500;7.772;2022-12-15T13:18:06;46.03;;;22.17;;
13793;SDS011;31160;49.500;7.772;2022-12-15T13:20:34;41.80;;;22.03;;
13793;SDS011;31160;49.500;7.772;2022-12-15T13:26:30;45.20;;;23.13;;
13793;SDS011;31160;49.500;7.772;2022-12-15T13:39:04;48.10;;;23.90;;
13793;SDS011;31160;49.500;7.772;2022-12-15T13:44:28;49.17;;;25.53;;
13793;SDS011;31160;49.500;7.772;2022-12-15T13:47:19;46.37;;;24.43;;
13793;SDS011;31160;49.500;7.772;2022-12-15T13:49:54;42.37;;;22.83;;
13793;SDS011;31160;49.500;7.772;2022-12-15T13:52:31;38.80;;;21.00;;
13793;SDS011;31160;49.500;7.772;2022-12-15T13:55:25;44.87;;;22.73;;
13793;SDS011;31160;49.500;7.772;2022-12-15T13:58:04;45.23;;;22.80;;
13793;SDS011;31160;49.500;7.772;2022-12-15T14:00:46;43.77;;;23.37;;
13793;SDS011;31160;49.500;7.772;2022-12-15T14:03:18;34.43;;;19.27;;
13793;SDS011;31160;49.500;7.772;2022-12-15T14:05:49;38.03;;;19.47;;
13793;SDS011;31160;49.500;7.772;2022-12-15T14:08:24;36.07;;;19.80;;
13793;SDS011;31160;49.500;7.772;2022-12-15T14:10:54;34.70;;;19.37;;
13793;SDS011;31160;49.500;7.772;2022-12-15T14:13:41;38.93;;;18.70;;
13793;SDS011;31160;49.500;7.772;2022-12-15T14:16:18;33.13;;;18.90;;
13793;SDS011;31160;49.500;7.772;2022-12-15T14:21:47;29.93;;;16.53;;
13793;SDS011;31160;49.500;7.772;2022-12-15T14:24:22;33.77;;;18.57;;
13793;SDS011;31160;49.500;7.772;2022-12-15T14:27:04;30.67;;;16.63;;
13793;SDS011;31160;49.500;7.772;2022-12-15T14:29:31;32.53;;;18.40;;
13793;SDS011;31160;49.500;7.772;2022-12-15T14:31:58;31.97;;;17.50;;
13793;SDS011;31160;49.500;7.772;2022-12-15T14:36:56;105.23;;;55.93;;
13793;SDS011;31160;49.500;7.772;2022-12-15T14:39:27;33.27;;;18.20;;
13793;SDS011;31160;49.500;7.772;2022-12-15T14:41:58;31.70;;;16.57;;
13793;SDS011;31160;49.500;7.772;2022-12-15T14:44:33;30.23;;;16.70;;
13793;SDS011;31160;49.500;7.772;2022-12-15T14:47:15;35.70;;;19.47;;
13793;SDS011;31160;49.500;7.772;2022-12-15T14:49:54;32.57;;;16.00;;
13793;SDS011;31160;49.500;7.772;2022-12-15T14:54:59;31.57;;;17.77;;
13793;SDS011;31160;49.500;7.772;2022-12-15T14:57:44;31.13;;;16.77;;
13793;SDS011;31160;49.500;7.772;2022-12-15T15:00:22;32.43;;;16.50;;
13793;SDS011;31160;49.500;7.772;2022-12-15T15:08:27;31.93;;;17.77;;
13793;SDS011;31160;49.500;7.772;2022-12-15T15:11:16;35.07;;;17.00;;
13793;SDS011;31160;49.500;7.772;2022-12-15T15:13:51;37.73;;;18.70;;
13793;SDS011;31160;49.500;7.772;2022-12-15T15:16:21;38.10;;;18.50;;
13793;SDS011;31160;49.500;7.772;2022-12-15T15:18:49;35.50;;;17.67;;
13793;SDS011;31160;49.500;7.772;2022-12-15T15:21:21;34.50;;;18.03;;
13793;SDS011;31160;49.500;7.772;2022-12-15T15:24:01;35.90;;;19.67;;
13793;SDS011;31160;49.500;7.772;2022-12-15T15:26:43;38.25;;;18.95;;
13793;SDS011;31160;49.500;7.772;2022-12-15T15:29:29;35.47;;;18.57;;
13793;SDS011;31160;49.500;7.772;2022-12-15T15:32:14;33.45;;;18.05;;
13793;SDS011;31160;49.500;7.772;2022-12-15T15:34:42;37.90;;;19.40;;
13793;SDS011;31160;49.500;7.772;2022-12-15T15:37:20;32.77;;;18.33;;
13793;SDS011;31160;49.500;7.772;2022-12-15T15:39:53;37.22;;;19.75;;
13793;SDS011;31160;49.500;7.772;2022-12-15T15:42:20;36.43;;;18.53;;
13793;SDS011;31160;49.500;7.772;2022-12-15T15:44:54;34.50;;;18.92;;
13793;SDS011;31160;49.500;7.772;2022-12-15T15:47:25;33.75;;;17.92;;
13793;SDS011;31160;49.500;7.772;2022-12-15T15:49:53;33.30;;;18.17;;
13793;SDS011;31160;49.500;7.772;2022-12-15T15:52:23;36.87;;;18.87;;
13793;SDS011;31160;49.500;7.772;2022-12-15T15:54:50;33.58;;;17.65;;
13793;SDS011;31160;49.500;7.772;2022-12-15T15:57:18;39.43;;;19.90;;
13793;SDS011;31160;49.500;7.772;2022-12-15T15:59:45;32.70;;;18.23;;
13793;SDS011;31160;49.500;7.772;2022-12-15T16:02:12;35.42;;;19.23;;
13793;SDS011;31160;49.500;7.772;2022-12-15T16:04:40;34.38;;;18.55;;
13793;SDS011;31160;49.500;7.772;2022-12-15T16:07:15;34.03;;;18.40;;
13793;SDS011;31160;49.500;7.772;2022-12-15T16:09:49;35.38;;;18.25;;
13793;SDS011;31160;49.500;7.772;2022-12-15T16:12:35;31.47;;;17.70;;
13793;SDS011;31160;49.500;7.772;2022-12-15T16:15:11;36.58;;;17.40;;
13793;SDS011;31160;49.500;7.772;2022-12-15T16:17:43;31.47;;;17.67;;
13793;SDS011;31160;49.500;7.772;2022-12-15T16:20:11;36.28;;;19.83;;
13793;SDS011;31160;49.500;7.772;2022-12-15T16:22:40;34.65;;;17.92;;
13793;SDS011;31160;49.500;7.772;2022-12-15T16:25:11;38.80;;;19.17;;
13793;SDS011;31160;49.500;7.772;2022-12-15T16:27:42;33.90;;;18.90;;
13793;SDS011;31160;49.500;7.772;2022-12-15T16:30:16;35.80;;;19.67;;
13793;SDS011;31160;49.500;7.772;2022-12-15T16:32:45;35.73;;;18.80;;
13793;SDS011;31160;49.500;7.772;2022-12-15T16:35:11;39.07;;;20.30;;
13793;SDS011;31160;49.500;7.772;2022-12-15T16:37:38;40.93;;;21.90;;
13793;SDS011;31160;49.500;7.772;2022-12-15T16:40:12;39.27;;;21.10;;
13793;SDS011;31160;49.500;7.772;2022-12-15T16:42:41;40.03;;;20.23;;
13793;SDS011;31160;49.500;7.772;2022-12-15T16:45:15;35.87;;;19.27;;
13793;SDS011;31160;49.500;7.772;2022-12-15T16:47:44;37.43;;;20.27;;
13793;SDS011;31160;49.500;7.772;2022-12-15T16:50:11;35.67;;;18.10;;
13793;SDS011;31160;49.500;7.772;2022-12-15T16:52:41;31.33;;;17.70;;
13793;SDS011;31160;49.500;7.772;2022-12-15T16:55:22;37.20;;;19.10;;
13793;SDS011;31160;49.500;7.772;2022-12-15T16:57:51;31.07;;;17.83;;
13793;SDS011;31160;49.500;7.772;2022-12-15T17:00:21;36.60;;;20.27;;
13793;SDS011;31160;49.500;7.772;2022-12-15T17:02:51;32.13;;;18.87;;
13793;SDS011;31160;49.500;7.772;2022-12-15T17:05:19;34.67;;;19.70;;
13793;SDS011;31160;49.500;7.772;2022-12-15T17:07:48;31.97;;;18.23;;
13793;SDS011;31160;49.500;7.772;2022-12-15T17:10:20;34.10;;;19.33;;
13793;SDS011;31160;49.500;7.772;2022-12-15T17:12:49;35.30;;;18.93;;
13793;SDS011;31160;49.500;7.772;2022-12-15T17:15:18;35.77;;;18.40;;
13793;SDS011;31160;49.500;7.772;2022-12-15T17:17:50;29.80;;;17.20;;
13793;SDS011;31160;49.500;7.772;2022-12-15T17:20:20;29.23;;;17.07;;
13793;SDS011;31160;49.500;7.772;2022-12-15T17:23:03;32.70;;;17.17;;
13793;SDS011;31160;49.500;7.772;2022-12-15T17:25:39;32.20;;;17.73;;
13793;SDS011;31160;49.500;7.772;2022-12-15T17:28:28;29.00;;;15.80;;
13793;SDS011;31160;49.500;7.772;2022-12-15T17:30:59;29.77;;;16.80;;
13793;SDS011;31160;49.500;7.772;2022-12-15T17:33:26;34.60;;;15.87;;
13793;SDS011;31160;49.500;7.772;2022-12-15T17:36:08;26.60;;;14.17;;